Baltrum Airport

EDWZ · 下萨克森, 德国

2023年2月6日 19:002023年2月7日 04:00有效
时间
星期一
19:00
>40%
星期一
20:00
星期一
21:00
星期一
22:00
星期一
23:00
星期二
00:00
星期二
01:00
星期二
02:00
星期二
03:00
代码
LIFR
LIFR
LIFR
LIFR
LIFR
LIFR
LIFR
LIFR
LIFR
天气
多雾路段
多雾路段
薄雾
多雾路段
多雾路段
冷冻 多雾路段
多雾路段
多雾路段
冷冻 多雾路段
冷冻 多雾路段
冷冻 多雾路段
冷冻 多雾路段
冷冻 多雾路段
冷冻 多雾路段
冷冻 多雾路段
冷冻 多雾路段
冷冻 多雾路段
冷冻 多雾路段
冷冻 多雾路段
冷冻 多雾路段
冷冻 多雾路段
能见度
500 m
500 m
500 m
500 m
500 m
500 m
500 m
500 m
500 m
天花板
100 ft
0 ft
0 ft
0 ft
0 ft
0 ft
0 ft
0 ft
0 ft
Var
Var
Var
Var
Var
Var
Var
Var
Var
Var
Var
Var
Var
Var
Var
Var
Var
Var
速度
3 kt
3 kt
3 kt
3 kt
3 kt
3 kt
3 kt
3 kt
3 kt
阵风
温度/星期日

原版的

TAF ETMN 061720Z 0618/0703 09003KT 0500 FG VV001
TEMPO 0618/0619 VRB03KT 3000 BR VV002
BECMG 0619/0621 VRB03KT 0500 FZFG VV000

TAF Baltrum Airport

Baltrum Airport是,德国中的小机场。 该机场有一条跑道: 9/27. 该领域的国际民航组织标志是EDWZ 它的国际航空运输协会代码是BMR.

这份报告是针对2023年2月6日 18:20, 当地时间在Nordholz Naval Airbase进行的。 从2023年2月6日 19:00到2023年2月7日 04:00, 当地时间有效.

预报

  • 在星期一 19:00和星期二 04:00之间

    • 风: 风来自090°方向,速度为3 kt。
    • 能见度: 500 m
    • 天气: 多雾路段
    • 乌云: 垂直能见度在100 ft的高度.
  • 暂时在星期一 19:00和20:00之间

    • 风: 可变方向的风很小或没有。
    • 能见度: 3 km
    • 天气: 薄雾
    • 乌云: 垂直能见度在200 ft的高度.
  • 介于星期一 20:00和22:00之间

    • 风: 可变方向的风很小或没有。
    • 能见度: 500 m
    • 天气: 冷冻 多雾路段
    • 乌云: 垂直能见度.

白天

今天,太阳从08:07升起,在17:21降落。 这适用于Baltrum Airport,世界夏令时可能有所不同。 当地时间与世界标准时间之间的时差为+1 小时。 当前,没有夏令时有效。

我们和第三方通过cookies跟踪您在我们网站上的互联网行为。如果你继续,我们认为你同意我们的饼干政策